Time;durP1;ratioP1;P1;durP2;ratioP2;P2;SDS_P1;SDS_P2;PMS_P1;PMS_P2;Temp;Humidity;BMP_temperature;BMP_pressure;BME280_temperature;BME280_humidity;BME280_pressure;Samples;Min_cycle;Max_cycle;Signal;HPM_P1;HPM_P2
2022/01/30 00:01:27;;;;;;;5.08;3.20;;;;;;;1.68;100.00;100593.65;1695568;82;21019;-66
2022/01/30 00:03:54;;;;;;;8.53;4.20;;;;;;;1.62;100.00;100591.15;1714288;82;21011;-67
2022/01/30 00:06:21;;;;;;;7.17;4.00;;;;;;;1.63;100.00;100575.52;1706261;83;21028;-67
2022/01/30 00:08:52;;;;;;;7.85;4.90;;;;;;;1.58;100.00;100580.60;1714017;82;21068;-66
2022/01/30 00:11:29;;;;;;;9.00;4.58;;;;;;;1.60;100.00;100568.75;1690764;83;21073;-66
2022/01/30 00:13:51;;;;;;;6.42;3.42;;;;;;;1.60;100.00;100570.02;1702008;82;21584;-67
2022/01/30 00:16:23;;;;;;;6.58;3.70;;;;;;;1.63;100.00;100570.45;1698528;83;21047;-66
2022/01/30 00:19:06;;;;;;;5.60;3.50;;;;;;;1.60;100.00;100562.00;1708033;83;21563;-67
2022/01/30 00:24:18;;;;;;;5.87;2.92;;;;;;;1.55;100.00;100557.37;1708044;83;21028;-66
2022/01/30 00:26:42;;;;;;;5.00;3.00;;;;;;;1.55;100.00;100552.73;1699889;82;21037;-66
2022/01/30 00:29:13;;;;;;;5.45;3.05;;;;;;;1.52;100.00;100554.87;1702963;82;21127;-66
2022/01/30 00:31:40;;;;;;;4.37;2.75;;;;;;;1.44;100.00;100543.92;1711558;82;21508;-66
2022/01/30 00:34:09;;;;;;;4.80;2.95;;;;;;;1.37;100.00;100533.38;1709138;83;21575;-66
2022/01/30 00:36:37;;;;;;;7.10;3.00;;;;;;;1.44;100.00;100538.85;1696380;83;21067;-65
2022/01/30 00:39:05;;;;;;;6.65;3.00;;;;;;;1.47;100.00;100540.52;1711140;83;21549;-65
2022/01/30 00:41:32;;;;;;;8.15;2.62;;;;;;;1.47;100.00;100537.98;1692799;83;21573;-66
2022/01/30 00:43:59;;;;;;;4.28;2.80;;;;;;;1.46;100.00;100528.27;1692934;83;21053;-66
2022/01/30 00:46:26;;;;;;;3.55;2.17;;;;;;;1.49;100.00;100524.43;1717657;83;21481;-66
2022/01/30 00:48:54;;;;;;;6.92;2.70;;;;;;;1.48;100.00;100519.36;1700305;83;21065;-65
2022/01/30 00:51:21;;;;;;;3.98;2.65;;;;;;;1.46;100.00;100509.65;1682999;83;21105;-66
2022/01/30 00:53:49;;;;;;;3.52;2.72;;;;;;;1.34;100.00;100510.16;1685268;83;22143;-66
2022/01/30 00:56:17;;;;;;;6.67;3.40;;;;;;;1.36;100.00;100513.53;1691551;83;21111;-65
2022/01/30 00:58:45;;;;;;;6.92;3.35;;;;;;;1.40;100.00;100508.02;1689814;83;21065;-66
2022/01/30 01:01:12;;;;;;;6.75;3.62;;;;;;;1.38;100.00;100503.38;1685176;83;21108;-65
2022/01/30 01:03:39;;;;;;;7.30;4.20;;;;;;;1.38;100.00;100509.29;1695270;83;21101;-66
2022/01/30 01:06:06;;;;;;;9.00;4.70;;;;;;;1.48;100.00;100503.73;1695771;83;21038;-66
2022/01/30 01:08:49;;;;;;;9.18;4.70;;;;;;;1.46;100.00;100497.83;1704880;83;21006;-66
2022/01/30 01:11:40;;;;;;;7.28;4.40;;;;;;;1.33;100.00;100496.22;1696471;83;21078;-66
2022/01/30 01:14:05;;;;;;;7.70;4.25;;;;;;;1.38;100.00;100503.38;1686426;84;21108;-66
2022/01/30 01:24:12;;;;;;;7.22;4.22;;;;;;;1.34;100.00;100491.14;1695242;83;21154;-65
2022/01/30 01:26:40;;;;;;;8.33;4.15;;;;;;;1.43;100.00;100490.23;1692205;83;21121;-66
2022/01/30 01:29:07;;;;;;;5.08;3.37;;;;;;;1.43;100.00;100490.66;1699646;83;21045;-66
2022/01/30 01:31:35;;;;;;;6.70;3.95;;;;;;;1.35;100.00;100483.93;1694751;83;21084;-66
2022/01/30 01:34:31;;;;;;;6.70;4.17;;;;;;;1.33;100.00;100483.09;1701567;83;21070;-66
2022/01/30 01:36:48;;;;;;;7.47;4.15;;;;;;;1.27;100.00;100482.30;1693924;83;21073;-65
2022/01/30 01:39:15;;;;;;;7.50;3.67;;;;;;;1.29;100.00;100475.09;1690932;83;21117;-66
2022/01/30 01:41:42;;;;;;;7.37;4.17;;;;;;;1.27;100.00;100473.00;1688450;83;21466;-66
2022/01/30 01:44:20;;;;;;;7.55;4.08;;;;;;;1.29;100.00;100466.22;1714485;83;21076;-65
2022/01/30 01:46:48;;;;;;;7.28;3.83;;;;;;;1.30;100.00;100467.92;1689733;83;21101;-65
2022/01/30 01:49:21;;;;;;;8.10;3.55;;;;;;;1.22;100.00;100466.27;1701174;83;21514;-66
2022/01/30 01:51:49;;;;;;;6.20;3.70;;;;;;;1.18;100.00;100465.47;1705954;83;21053;-67
2022/01/30 01:54:14;;;;;;;6.87;3.37;;;;;;;1.22;100.00;100467.13;1678435;84;21515;-66
2022/01/30 01:56:41;;;;;;;5.90;3.47;;;;;;;1.18;100.00;100462.93;1698492;83;21081;-66
2022/01/30 01:59:10;;;;;;;4.40;2.90;;;;;;;1.19;100.00;100456.99;1657210;85;21080;-65
2022/01/30 02:02:01;;;;;;;5.78;3.40;;;;;;;1.13;100.00;100453.23;1699393;83;21050;-65
2022/01/30 02:04:28;;;;;;;4.97;3.25;;;;;;;1.11;100.00;100444.36;1662903;86;21043;-65
2022/01/30 02:09:35;;;;;;;6.03;3.37;;;;;;;1.19;100.00;100445.15;1661442;86;21509;-66
2022/01/30 02:12:03;;;;;;;6.60;3.10;;;;;;;1.10;100.00;100438.89;1661163;86;21046;-65
2022/01/30 02:14:47;;;;;;;4.30;2.65;;;;;;;1.11;100.00;100430.84;1661185;86;21106;-66
2022/01/30 02:25:38;;;;;;;4.85;3.05;;;;;;;1.04;100.00;100416.55;1661370;86;21037;-66
2022/01/30 02:27:59;;;;;;;4.55;2.72;;;;;;;1.04;100.00;100409.77;1656639;86;21511;-66
2022/01/30 02:30:33;;;;;;;4.70;2.87;;;;;;;1.01;100.00;100412.31;1661292;86;21052;-66
2022/01/30 02:32:57;;;;;;;5.30;3.10;;;;;;;1.04;100.00;100409.77;1660833;86;21065;-66
2022/01/30 02:35:26;;;;;;;4.75;2.33;;;;;;;1.03;100.00;100401.73;1661255;86;21041;-65
2022/01/30 02:37:56;;;;;;;4.60;2.98;;;;;;;1.01;100.00;100403.45;1661143;86;21160;-65
2022/01/30 02:40:23;;;;;;;5.53;3.02;;;;;;;0.94;100.00;100396.75;1661325;86;21041;-66
2022/01/30 02:42:52;;;;;;;4.30;2.52;;;;;;;1.00;100.00;100392.91;1661142;86;21074;-65
2022/01/30 02:45:22;;;;;;;6.53;2.70;;;;;;;1.02;100.00;100399.23;1661408;86;21049;-65
2022/01/30 02:53:08;;;;;;;4.15;2.62;;;;;;;0.91;100.00;100382.41;1661183;86;21096;-65
2022/01/30 02:55:34;;;;;;;5.55;3.35;;;;;;;0.90;100.00;100385.78;1661492;86;21558;-65
2022/01/30 02:58:02;;;;;;;6.33;3.47;;;;;;;0.90;100.00;100371.84;1661083;86;21085;-65
2022/01/30 03:00:31;;;;;;;7.10;4.00;;;;;;;0.93;100.00;100371.84;1661422;86;21070;-66
2022/01/30 03:02:58;;;;;;;9.03;5.78;;;;;;;0.89;100.00;100369.31;1661353;86;21046;-65
2022/01/30 03:05:25;;;;;;;10.08;6.80;;;;;;;0.88;100.00;100365.11;1661372;86;21021;-66
2022/01/30 03:07:53;;;;;;;14.05;8.00;;;;;;;0.94;100.00;100357.03;1661192;86;21037;-65
2022/01/30 03:10:21;;;;;;;16.42;9.85;;;;;;;0.96;100.00;100360.39;1661385;86;21517;-66
2022/01/30 03:12:48;;;;;;;15.13;9.58;;;;;;;0.94;100.00;100354.50;1661255;86;21495;-66
2022/01/30 03:15:17;;;;;;;17.20;10.55;;;;;;;0.87;100.00;100357.08;1661503;86;21542;-66
2022/01/30 03:17:44;;;;;;;19.87;10.35;;;;;;;0.87;100.00;100350.74;1661293;86;20986;-66
2022/01/30 03:20:12;;;;;;;18.50;11.08;;;;;;;0.82;100.00;100349.52;1661391;86;21570;-66
2022/01/30 03:22:40;;;;;;;18.45;11.45;;;;;;;0.81;100.00;100347.81;1661801;86;21045;-66
2022/01/30 03:25:08;;;;;;;18.25;10.25;;;;;;;0.79;100.00;100351.66;1661203;86;21097;-66
2022/01/30 03:27:51;;;;;;;17.40;10.03;;;;;;;0.74;100.00;100343.23;1635264;86;21042;-66
2022/01/30 03:30:19;;;;;;;15.08;8.33;;;;;;;0.78;100.00;100343.62;1660914;86;21462;-65
2022/01/30 03:32:56;;;;;;;11.00;7.00;;;;;;;0.78;100.00;100337.72;1640687;86;21626;-66
2022/01/30 03:35:23;;;;;;;13.90;7.37;;;;;;;0.75;100.00;100332.66;1661296;86;21045;-66
2022/01/30 03:37:51;;;;;;;12.05;6.55;;;;;;;0.76;100.00;100323.78;1661210;86;21103;-66
2022/01/30 03:40:18;;;;;;;7.90;5.12;;;;;;;0.79;100.00;100312.78;1634491;86;21132;-66
2022/01/30 03:42:47;;;;;;;8.98;5.03;;;;;;;0.72;100.00;100311.99;1660066;86;21085;-66
2022/01/30 03:45:15;;;;;;;7.35;4.22;;;;;;;0.74;100.00;100303.12;1661272;86;21582;-66
2022/01/30 03:47:43;;;;;;;8.35;5.00;;;;;;;0.74;100.00;100300.59;1631684;87;21542;-66
2022/01/30 03:50:12;;;;;;;7.42;4.35;;;;;;;0.80;100.00;100305.17;1659582;86;21077;-66
2022/01/30 03:52:41;;;;;;;8.93;4.30;;;;;;;0.71;100.00;100294.26;1631534;86;21600;-66
2022/01/30 03:55:09;;;;;;;9.58;4.08;;;;;;;0.71;100.00;100294.26;1660432;86;21070;-66
2022/01/30 03:57:36;;;;;;;6.42;3.92;;;;;;;0.65;100.00;100304.03;1661077;86;21073;-66
2022/01/30 04:00:06;;;;;;;7.53;4.37;;;;;;;0.67;100.00;100291.34;1661323;86;21578;-66
2022/01/30 04:02:33;;;;;;;8.08;4.53;;;;;;;0.71;100.00;100290.46;1641076;86;21096;-65
2022/01/30 04:05:01;;;;;;;8.25;3.72;;;;;;;0.69;100.00;100283.30;1662579;85;21085;-66
2022/01/30 04:07:32;;;;;;;6.08;3.85;;;;;;;0.71;100.00;100271.05;1661404;86;21112;-66
2022/01/30 04:10:03;;;;;;;7.37;3.75;;;;;;;0.76;100.00;100268.48;1658702;86;21066;-66
2022/01/30 04:12:34;;;;;;;7.40;4.00;;;;;;;0.73;100.00;100270.62;1660526;86;21090;-66
2022/01/30 04:15:14;;;;;;;6.92;4.17;;;;;;;0.73;100.00;100263.02;1603546;89;21091;-66
2022/01/30 04:17:47;;;;;;;;;;;;;;;0.76;100.00;100265.95;1649101;85;21561;-66
2022/01/30 04:20:33;;;;;;;5.62;4.30;;;;;;;0.73;100.00;100257.09;1693876;83;20113;-66
2022/01/30 04:23:02;;;;;;;8.98;4.17;;;;;;;0.76;100.00;100267.22;1656312;83;21087;-66
2022/01/30 04:25:35;;;;;;;6.53;3.98;;;;;;;0.78;100.00;100255.38;1667118;85;21043;-66
2022/01/30 04:28:08;;;;;;;5.47;3.72;;;;;;;0.74;100.00;100252.45;1658567;83;21279;-66
2022/01/30 04:30:54;;;;;;;7.92;4.30;;;;;;;0.70;100.00;100255.86;1663773;86;21152;-66
2022/01/30 04:33:30;;;;;;;5.80;3.65;;;;;;;0.71;100.00;100248.66;1659590;86;21084;-66
2022/01/30 04:36:08;;;;;;;5.85;3.37;;;;;;;0.60;100.00;100252.12;1648106;86;21119;-66
2022/01/30 04:39:13;;;;;;;5.62;3.65;;;;;;;0.59;100.00;100245.38;1670982;84;21509;-66
2022/01/30 04:53:21;;;;;;;5.45;3.02;;;;;;;0.59;100.00;100236.52;1673688;84;21576;-66
2022/01/30 05:04:43;;;;;;;4.78;3.33;;;;;;;0.27;100.00;100227.88;1607054;86;21111;-66
2022/01/30 05:09:57;;;;;;;4.20;3.33;;;;;;;0.10;100.00;100228.00;1654368;85;21559;-66
2022/01/30 05:12:45;;;;;;;7.30;4.08;;;;;;;-0.01;100.00;100224.67;1658133;85;21095;-66
2022/01/30 05:15:21;;;;;;;5.55;3.62;;;;;;;-0.12;100.00;100227.66;1647119;84;21034;-66
2022/01/30 05:18:03;;;;;;;6.67;4.12;;;;;;;-0.18;100.00;100231.48;1611557;85;21053;-66
2022/01/30 05:20:40;;;;;;;8.55;3.90;;;;;;;-0.22;100.00;100220.13;1677000;83;21065;-66
2022/01/30 05:23:12;;;;;;;8.40;4.25;;;;;;;-0.23;100.00;100231.08;1674861;84;21080;-66
2022/01/30 05:25:42;;;;;;;8.05;4.50;;;;;;;-0.25;100.00;100224.36;1659714;86;21066;-65
2022/01/30 05:28:12;;;;;;;7.25;3.87;;;;;;;-0.29;100.00;100227.75;1660296;86;21578;-66
2022/01/30 05:30:43;;;;;;;5.45;3.85;;;;;;;-0.32;100.00;100213.87;1655619;86;21076;-66
2022/01/30 05:33:13;;;;;;;5.70;4.00;;;;;;;-0.42;100.00;100221.91;1659768;85;21069;-66
2022/01/30 05:35:41;;;;;;;5.72;3.60;;;;;;;-0.46;100.00;100202.54;1661143;86;21101;-66
2022/01/30 05:38:23;;;;;;;6.12;3.58;;;;;;;-0.53;100.00;100197.91;1661368;86;21065;-66
2022/01/30 05:41:09;;;;;;;6.45;4.25;;;;;;;-0.59;100.00;100202.16;1661016;86;21117;-66
2022/01/30 05:43:58;;;;;;;8.68;4.67;;;;;;;-0.68;100.00;100203.87;1661208;86;21160;-66
2022/01/30 05:46:35;;;;;;;8.40;4.80;;;;;;;-0.65;100.00;100199.22;1649882;86;21030;-66
2022/01/30 05:49:03;;;;;;;9.75;5.28;;;;;;;-0.75;100.00;100188.72;1659469;86;21081;-66
2022/01/30 05:51:50;;;;;;;9.63;5.30;;;;;;;-0.82;100.00;100194.22;1657474;86;21085;-66
2022/01/30 05:54:19;;;;;;;7.90;4.95;;;;;;;-0.83;100.00;100193.39;1660244;86;21121;-66
2022/01/30 05:56:47;;;;;;;9.83;5.42;;;;;;;-0.81;100.00;100185.38;1661294;86;21526;-65
2022/01/30 05:59:17;;;;;;;9.80;4.80;;;;;;;-0.84;100.00;100187.90;1661035;86;21131;-66
2022/01/30 06:02:04;;;;;;;10.00;4.78;;;;;;;-0.87;100.00;100184.56;1661101;86;21049;-66
2022/01/30 06:04:31;;;;;;;11.78;5.05;;;;;;;-0.83;100.00;100179.48;1661410;86;21049;-65
2022/01/30 06:07:00;;;;;;;8.85;5.45;;;;;;;-0.83;100.00;100187.06;1661139;86;21042;-66
2022/01/30 06:09:28;;;;;;;9.63;4.90;;;;;;;-0.85;100.00;100177.82;1661168;86;21073;-66
2022/01/30 06:11:59;;;;;;;9.48;5.12;;;;;;;-0.93;100.00;100171.52;1661016;86;21502;-66
2022/01/30 06:14:27;;;;;;;9.33;4.85;;;;;;;-0.93;100.00;100171.52;1661283;86;21057;-66
2022/01/30 06:17:00;;;;;;;11.18;5.00;;;;;;;-0.88;100.00;100165.17;1659724;86;21009;-66
2022/01/30 06:19:29;;;;;;;12.33;5.70;;;;;;;-0.84;100.00;100160.53;1658115;86;21077;-66
2022/01/30 06:22:16;;;;;;;10.72;5.42;;;;;;;-0.76;100.00;100158.81;1654790;86;21049;-66
2022/01/30 06:25:04;;;;;;;8.55;5.05;;;;;;;-0.69;100.00;100152.91;1661408;86;21069;-66
2022/01/30 06:27:38;;;;;;;11.03;5.05;;;;;;;-0.76;100.00;100151.23;1657790;86;21053;-66
2022/01/30 06:30:26;;;;;;;10.70;5.20;;;;;;;-0.68;100.00;100138.58;1661341;86;21075;-66
2022/01/30 06:33:11;;;;;;;9.38;5.60;;;;;;;-0.65;100.00;100146.13;1661223;86;21053;-66
2022/01/30 06:35:57;;;;;;;10.78;5.45;;;;;;;-0.65;100.00;100143.60;1656730;86;21533;-66
2022/01/30 06:38:26;;;;;;;14.98;6.33;;;;;;;-0.61;100.00;100137.29;1660522;86;21101;-65
2022/01/30 06:41:12;;;;;;;10.15;5.40;;;;;;;-0.52;100.00;100126.28;1661349;86;21113;-66
2022/01/30 06:43:57;;;;;;;10.30;6.20;;;;;;;-0.44;100.00;100124.98;1661029;86;21137;-66
2022/01/30 06:46:43;;;;;;;12.33;5.75;;;;;;;-0.25;100.00;100106.74;1661611;86;21534;-66
2022/01/30 06:49:28;;;;;;;9.85;5.75;;;;;;;-0.22;100.00;100106.30;1661233;86;21530;-66
2022/01/30 06:52:16;;;;;;;13.28;6.22;;;;;;;-0.03;100.00;100109.97;1661370;86;21010;-66
2022/01/30 06:55:01;;;;;;;9.98;5.87;;;;;;;0.26;100.00;100089.48;1661121;86;21097;-66
2022/01/30 06:57:47;;;;;;;10.65;5.78;;;;;;;0.48;100.00;100091.83;1661403;86;21022;-65
2022/01/30 07:00:33;;;;;;;12.45;5.65;;;;;;;0.58;100.00;100086.66;1661194;86;21062;-66
2022/01/30 07:03:15;;;;;;;8.50;5.15;;;;;;;0.60;100.00;100069.75;1661379;86;21575;-66
2022/01/30 07:05:43;;;;;;;10.60;5.33;;;;;;;0.92;100.00;100065.20;1660403;85;21054;-66
2022/01/30 07:08:12;;;;;;;8.65;5.65;;;;;;;0.99;100.00;100061.72;1660939;86;21080;-66
2022/01/30 07:10:40;;;;;;;11.08;6.15;;;;;;;1.10;100.00;100062.88;1661214;86;21120;-66
2022/01/30 07:13:11;;;;;;;11.80;6.10;;;;;;;0.98;100.00;100060.06;1661234;86;21090;-66
2022/01/30 07:15:45;;;;;;;12.30;6.08;;;;;;;1.11;100.00;100062.84;1661188;86;21100;-66
2022/01/30 07:18:09;;;;;;;9.58;5.33;;;;;;;1.06;100.00;100058.70;1660095;85;21033;-66
2022/01/30 07:20:36;;;;;;;10.35;5.83;;;;;;;1.02;100.00;100055.80;1661426;86;21033;-66
2022/01/30 07:23:04;;;;;;;11.08;6.03;;;;;;;1.10;100.00;100057.81;1660529;86;21033;-66
2022/01/30 07:25:31;;;;;;;13.60;6.12;;;;;;;1.10;100.00;100046.41;1661247;86;21129;-66
2022/01/30 07:27:58;;;;;;;10.63;5.40;;;;;;;1.06;100.00;100035.45;1661160;86;21116;-66
2022/01/30 07:30:25;;;;;;;12.20;6.00;;;;;;;1.21;100.00;100040.75;1661549;86;21026;-66
2022/01/30 07:32:54;;;;;;;12.03;5.67;;;;;;;1.14;100.00;100025.22;1661357;86;21073;-66
2022/01/30 07:35:23;;;;;;;10.55;5.80;;;;;;;1.31;100.00;100030.05;1661274;86;21534;-66
2022/01/30 07:37:50;;;;;;;8.83;4.87;;;;;;;1.42;100.00;100022.28;1661354;86;21025;-66
2022/01/30 07:40:19;;;;;;;11.55;6.10;;;;;;;1.37;100.00;100017.29;1661332;86;21092;-66
2022/01/30 07:42:46;;;;;;;14.05;6.15;;;;;;;1.47;100.00;100009.13;1661498;86;21589;-66
2022/01/30 07:45:15;;;;;;;13.65;6.55;;;;;;;1.40;100.00;100002.05;1661477;86;21053;-66
2022/01/30 07:47:43;;;;;;;14.35;6.83;;;;;;;1.35;100.00;100003.36;1661449;86;21061;-66
2022/01/30 07:50:10;;;;;;;11.78;6.50;;;;;;;1.37;100.00;100002.08;1661349;86;21014;-67
2022/01/30 07:52:37;;;;;;;10.70;5.55;;;;;;;1.37;100.00;99995.73;1661286;86;21092;-66
2022/01/30 07:55:05;;;;;;;12.73;6.05;;;;;;;1.45;100.00;99995.19;1661029;86;21117;-66
2022/01/30 07:57:34;;;;;;;9.48;5.65;;;;;;;1.44;100.00;100002.81;1661276;86;21093;-66
2022/01/30 08:00:05;;;;;;;10.88;5.58;;;;;;;1.49;100.00;99994.72;1661128;86;21034;-66
2022/01/30 08:02:34;;;;;;;10.38;6.08;;;;;;;1.58;100.00;99991.62;1660066;86;21443;-66
2022/01/30 08:05:04;;;;;;;11.63;5.65;;;;;;;1.70;100.00;99984.22;1661223;86;21533;-67
2022/01/30 08:07:32;;;;;;;10.00;5.90;;;;;;;1.83;100.00;99981.07;1661426;86;21073;-67
2022/01/30 08:09:59;;;;;;;11.22;5.70;;;;;;;1.93;100.00;99982.59;1661298;86;21061;-67
2022/01/30 08:12:26;;;;;;;10.15;5.80;;;;;;;1.89;100.00;99976.33;1661241;86;21498;-67
2022/01/30 08:14:54;;;;;;;11.35;5.92;;;;;;;1.94;100.00;99974.53;1661113;86;21026;-66
2022/01/30 08:17:23;;;;;;;11.03;5.95;;;;;;;2.07;100.00;99958.64;1661317;86;21089;-66
2022/01/30 08:19:51;;;;;;;11.50;5.35;;;;;;;2.10;100.00;99953.52;1661108;86;21061;-65
2022/01/30 08:22:18;;;;;;;10.98;5.40;;;;;;;2.15;100.00;99947.50;1661358;86;21026;-65
2022/01/30 08:24:46;;;;;;;10.05;5.30;;;;;;;2.30;100.00;99945.54;1661123;86;21099;-66
2022/01/30 08:27:13;;;;;;;9.70;4.55;;;;;;;2.18;100.00;99941.08;1661240;86;21574;-65
2022/01/30 08:29:42;;;;;;;9.40;5.08;;;;;;;2.09;100.00;99932.39;1661110;86;21034;-66
2022/01/30 08:32:11;;;;;;;7.97;4.78;;;;;;;2.18;100.00;99922.03;1661414;86;21081;-66
2022/01/30 08:34:41;;;;;;;11.05;5.30;;;;;;;2.25;100.00;99924.46;1661402;86;21061;-66
2022/01/30 08:37:08;;;;;;;9.58;5.28;;;;;;;2.24;100.00;99921.53;1660938;86;21120;-65
2022/01/30 08:39:35;;;;;;;10.78;4.70;;;;;;;2.23;100.00;99923.24;1661149;86;21022;-66
2022/01/30 08:42:06;;;;;;;8.30;4.42;;;;;;;2.27;100.00;99917.23;1661295;86;21057;-66
2022/01/30 08:44:33;;;;;;;9.00;5.00;;;;;;;2.40;100.00;99908.93;1661294;86;21148;-66
2022/01/30 08:47:00;;;;;;;7.35;4.55;;;;;;;2.46;100.00;99911.34;1661224;86;21618;-66
2022/01/30 08:49:29;;;;;;;9.28;4.50;;;;;;;2.54;100.00;99894.23;1661089;86;21046;-66
2022/01/30 08:51:56;;;;;;;8.60;4.45;;;;;;;2.52;100.00;99892.61;1661347;86;21081;-66
2022/01/30 08:54:24;;;;;;;10.78;4.90;;;;;;;2.57;100.00;99891.62;1661088;86;21121;-67
2022/01/30 08:56:51;;;;;;;9.23;4.42;;;;;;;2.77;100.00;99883.56;1661136;86;21109;-66
2022/01/30 08:59:19;;;;;;;7.05;3.85;;;;;;;2.85;100.00;99882.13;1661313;86;21029;-66
2022/01/30 09:01:47;;;;;;;7.17;4.40;;;;;;;2.86;100.00;99872.37;1661319;86;21554;-66
2022/01/30 09:04:15;;;;;;;8.40;4.30;;;;;;;2.86;100.00;99859.67;1661109;86;21074;-66
2022/01/30 09:06:43;;;;;;;6.87;4.00;;;;;;;2.86;100.00;99859.67;1661090;86;21137;-66
2022/01/30 09:09:11;;;;;;;10.48;4.25;;;;;;;2.99;100.00;99847.50;1661187;86;21602;-67
2022/01/30 09:11:38;;;;;;;6.67;4.12;;;;;;;2.80;100.00;99844.12;1661176;86;21058;-66
2022/01/30 09:14:07;;;;;;;8.05;4.10;;;;;;;3.16;100.00;99831.83;1661244;86;21068;-66
2022/01/30 09:16:34;;;;;;;9.85;4.17;;;;;;;3.16;100.00;99831.83;1661005;86;21121;-66
2022/01/30 09:19:02;;;;;;;6.97;3.52;;;;;;;3.22;100.00;99832.95;1661080;86;21109;-66
2022/01/30 09:21:30;;;;;;;9.45;4.25;;;;;;;3.18;100.00;99818.64;1660888;86;21558;-66
2022/01/30 09:23:57;;;;;;;7.33;4.05;;;;;;;3.34;100.00;99816.11;1661185;86;21506;-66
2022/01/30 09:26:24;;;;;;;8.40;4.10;;;;;;;3.26;100.00;99810.83;1661217;86;21053;-66
2022/01/30 09:28:53;;;;;;;7.85;3.87;;;;;;;3.29;100.00;99809.05;1661451;86;21539;-66
2022/01/30 09:31:20;;;;;;;6.00;4.20;;;;;;;3.34;100.00;99805.93;1661234;86;21060;-66
2022/01/30 09:33:47;;;;;;;7.65;3.65;;;;;;;3.52;100.00;99788.08;1661335;86;21590;-66
2022/01/30 09:36:15;;;;;;;6.33;3.80;;;;;;;3.50;100.00;99792.38;1661272;86;21042;-65
2022/01/30 09:38:42;;;;;;;7.20;3.55;;;;;;;3.57;100.00;99787.53;1661305;86;21073;-65
2022/01/30 09:41:11;;;;;;;5.83;3.60;;;;;;;3.56;100.00;99783.75;1661243;86;21581;-66
2022/01/30 09:43:39;;;;;;;6.25;3.55;;;;;;;3.61;100.00;99775.13;1661166;86;21137;-66
2022/01/30 09:46:06;;;;;;;9.48;3.80;;;;;;;3.62;100.00;99773.41;1657072;85;21055;-66
2022/01/30 09:48:37;;;;;;;7.67;3.77;;;;;;;3.65;100.00;99769.52;1669905;86;21524;-67
2022/01/30 09:51:09;;;;;;;6.47;3.75;;;;;;;3.51;100.00;99765.25;1669443;85;21028;-67
2022/01/30 09:53:38;;;;;;;7.87;4.12;;;;;;;3.55;100.00;99762.56;1664865;85;21044;-66
2022/01/30 09:56:06;;;;;;;8.50;3.98;;;;;;;3.57;100.00;99758.72;1661452;86;21108;-66
2022/01/30 09:58:34;;;;;;;8.28;4.67;;;;;;;3.57;100.00;99750.64;1661202;86;21584;-67
2022/01/30 10:01:02;;;;;;;7.17;3.77;;;;;;;3.57;100.00;99754.45;1661199;86;21065;-66
2022/01/30 10:03:29;;;;;;;8.83;3.92;;;;;;;3.47;100.00;99746.67;1661192;86;21022;-68
2022/01/30 10:06:13;;;;;;;7.22;4.28;;;;;;;3.54;100.00;99734.16;1662737;85;21103;-67
2022/01/30 10:08:44;;;;;;;7.50;4.08;;;;;;;3.63;100.00;99727.15;1662006;86;21113;-67
2022/01/30 10:11:34;;;;;;;8.50;4.22;;;;;;;3.77;100.00;99716.98;1661205;85;21497;-67
2022/01/30 10:13:45;;;;;;;6.53;4.22;;;;;;;3.80;100.00;99711.80;1640310;86;21095;-66
2022/01/30 10:16:13;;;;;;;10.58;5.12;;;;;;;3.87;100.00;99703.97;1661127;86;21055;-67
2022/01/30 10:18:45;;;;;;;7.83;4.30;;;;;;;3.88;100.00;99701.39;1659835;86;21714;-67
2022/01/30 10:21:20;;;;;;;8.75;4.83;;;;;;;3.88;100.00;99696.75;1660404;86;21108;-66
2022/01/30 10:23:48;;;;;;;7.42;4.75;;;;;;;4.01;100.00;99691.66;1660252;86;21047;-66
2022/01/30 10:26:18;;;;;;;7.20;4.45;;;;;;;4.21;100.00;99681.70;1659960;86;21013;-66
2022/01/30 10:28:44;;;;;;;7.40;4.40;;;;;;;4.18;100.00;99688.63;1660064;86;21048;-67
2022/01/30 10:31:14;;;;;;;8.20;4.60;;;;;;;4.12;100.00;99674.36;1660071;86;21056;-67
2022/01/30 10:33:51;;;;;;;10.80;4.30;;;;;;;4.03;100.00;99668.70;1674125;85;21059;-67
2022/01/30 10:36:25;;;;;;;10.58;4.65;;;;;;;4.14;100.00;99663.68;1688804;85;21052;-66
2022/01/30 10:39:12;;;;;;;6.00;4.25;;;;;;;4.35;100.00;99659.61;1675104;85;21000;-66
2022/01/30 10:41:38;;;;;;;8.55;4.67;;;;;;;4.40;100.00;99650.56;1659937;86;21588;-66
2022/01/30 10:44:08;;;;;;;9.48;4.85;;;;;;;4.35;100.00;99652.41;1660308;85;21135;-66
2022/01/30 10:46:45;;;;;;;7.17;4.80;;;;;;;4.24;100.00;99650.64;1661163;86;21637;-67
2022/01/30 10:49:17;;;;;;;7.37;4.75;;;;;;;4.26;100.00;99645.05;1662024;86;21069;-66
2022/01/30 10:52:00;;;;;;;10.68;5.00;;;;;;;4.18;100.00;99639.77;1660217;86;21092;-67
2022/01/30 10:54:32;;;;;;;11.18;4.80;;;;;;;4.20;100.00;99634.19;1706868;83;21020;-66
2022/01/30 10:57:13;;;;;;;7.37;5.10;;;;;;;4.07;100.00;99623.98;1704078;83;21137;-66
2022/01/30 10:59:43;;;;;;;8.15;5.12;;;;;;;3.96;100.00;99624.34;1701492;83;21105;-66
2022/01/30 11:02:20;;;;;;;9.38;5.20;;;;;;;3.91;100.00;99618.98;1672996;85;21061;-67
2022/01/30 11:04:50;;;;;;;10.53;5.42;;;;;;;3.90;100.00;99611.80;1654640;84;21066;-67
2022/01/30 11:07:21;;;;;;;7.55;4.70;;;;;;;3.94;100.00;99606.17;1668564;85;21053;-67
2022/01/30 11:10:06;;;;;;;9.75;5.20;;;;;;;4.02;100.00;99605.49;1660673;85;21012;-66
2022/01/30 11:13:21;;;;;;;11.45;5.50;;;;;;;4.10;100.00;99602.70;1641758;86;21053;-66
2022/01/30 11:15:17;;;;;;;9.13;5.45;;;;;;;4.13;100.00;99600.05;1622460;86;21966;-66
2022/01/30 11:17:35;;;;;;;7.62;5.35;;;;;;;4.14;100.00;99597.45;1630564;86;21059;-67
2022/01/30 11:20:03;;;;;;;8.78;5.10;;;;;;;4.08;100.00;99601.48;1637841;86;21067;-67
2022/01/30 11:22:32;;;;;;;9.55;5.78;;;;;;;4.07;100.00;99593.42;1664427;85;21578;-67
2022/01/30 11:25:05;;;;;;;8.00;5.22;;;;;;;4.13;100.00;99601.31;1636068;86;21074;-66
2022/01/30 11:27:34;;;;;;;10.82;5.58;;;;;;;4.15;100.00;99597.83;1623799;86;21536;-67
2022/01/30 11:30:03;;;;;;;9.70;4.95;;;;;;;4.04;100.00;99589.72;1681199;85;21067;-67
2022/01/30 11:32:31;;;;;;;9.80;5.92;;;;;;;4.05;100.00;99585.00;1680210;84;21084;-67
2022/01/30 11:34:58;;;;;;;10.93;5.95;;;;;;;4.07;100.00;99584.52;1686678;85;21084;-67
2022/01/30 11:37:29;;;;;;;10.25;5.72;;;;;;;4.12;100.00;99577.57;1689113;85;21060;-66
2022/01/30 11:39:58;;;;;;;8.70;5.85;;;;;;;4.23;100.00;99572.56;1689090;85;21817;-66
2022/01/30 11:42:45;;;;;;;9.63;5.62;;;;;;;4.13;100.00;99558.02;1687329;85;21064;-67
2022/01/30 11:45:18;;;;;;;8.23;5.62;;;;;;;4.13;100.00;99566.48;1689289;85;21043;-66
2022/01/30 11:47:48;;;;;;;9.58;5.78;;;;;;;4.27;100.00;99547.38;1688984;85;21052;-66
2022/01/30 11:50:28;;;;;;;10.30;5.72;;;;;;;4.29;100.00;99546.44;1689107;85;21028;-67
2022/01/30 11:53:07;;;;;;;8.73;5.55;;;;;;;4.24;100.00;99543.23;1689230;85;21044;-67
2022/01/30 11:55:56;;;;;;;9.45;5.37;;;;;;;4.30;100.00;99537.92;1688967;85;21085;-66
2022/01/30 11:58:40;;;;;;;12.07;5.80;;;;;;;4.19;100.00;99542.53;1646099;85;21053;-67
2022/01/30 12:01:27;;;;;;;10.00;6.00;;;;;;;4.15;100.00;99548.16;1634002;87;21021;-66
2022/01/30 12:03:59;;;;;;;10.80;5.90;;;;;;;4.11;100.00;99540.23;1634223;88;21101;-66
2022/01/30 12:06:40;;;;;;;14.00;6.10;;;;;;;3.93;100.00;99533.20;1634585;88;21077;-66
2022/01/30 12:09:22;;;;;;;9.50;5.55;;;;;;;3.81;100.00;99534.42;1634314;88;21058;-67
2022/01/30 12:11:56;;;;;;;11.63;6.22;;;;;;;3.73;100.00;99528.74;1656140;85;21569;-67
2022/01/30 12:14:32;;;;;;;9.15;5.75;;;;;;;3.56;100.00;99523.75;1661685;86;21079;-66
2022/01/30 12:17:02;;;;;;;9.55;5.55;;;;;;;3.64;100.00;99515.05;1661727;86;21115;-66
2022/01/30 12:19:40;;;;;;;9.25;5.75;;;;;;;3.57;100.00;99511.88;1661644;86;21127;-66
2022/01/30 12:22:28;;;;;;;8.45;5.45;;;;;;;3.53;100.00;99509.04;1661719;85;21063;-66
2022/01/30 12:25:24;;;;;;;10.58;6.12;;;;;;;3.50;100.00;99507.40;1661692;86;21619;-66
2022/01/30 12:27:57;;;;;;;13.13;6.83;;;;;;;3.49;100.00;99499.80;1661826;85;21047;-66
2022/01/30 12:30:44;;;;;;;11.90;6.37;;;;;;;3.52;100.00;99492.09;1662273;86;21082;-67
2022/01/30 12:33:32;;;;;;;10.15;5.78;;;;;;;3.58;100.00;99489.35;1661821;86;21032;-66
2022/01/30 12:36:05;;;;;;;10.08;6.08;;;;;;;3.51;100.00;99484.08;1661683;85;21607;-66